Map

Track Data

SID SEASON NUMBER BASIN SUBBASIN NAME ISO_TIME NATURE LAT LON WMO_WIND WMO_PRES WMO_AGENCY TRACK_TYPE DIST2LAND LANDFALL IFLAG USA_AGENCY USA_ATCF_ID USA_LAT USA_LON USA_RECORD USA_STATUS USA_WIND USA_PRES USA_SSHS USA_R34_NE USA_R34_SE USA_R34_SW USA_R34_NW USA_R50_NE USA_R50_SE USA_R50_SW USA_R50_NW USA_R64_NE USA_R64_SE USA_R64_SW USA_R64_NW USA_POCI USA_ROCI USA_RMW USA_EYE TOKYO_LAT TOKYO_LON TOKYO_GRADE TOKYO_WIND TOKYO_PRES TOKYO_R50_DIR TOKYO_R50_LONG TOKYO_R50_SHORT TOKYO_R30_DIR TOKYO_R30_LONG TOKYO_R30_SHORT TOKYO_LAND CMA_LAT CMA_LON CMA_CAT CMA_WIND CMA_PRES HKO_LAT HKO_LON HKO_CAT HKO_WIND HKO_PRES NEWDELHI_LAT NEWDELHI_LON NEWDELHI_GRADE NEWDELHI_WIND NEWDELHI_PRES NEWDELHI_CI NEWDELHI_DP NEWDELHI_POCI REUNION_LAT REUNION_LON REUNION_TYPE REUNION_WIND REUNION_PRES REUNION_TNUM REUNION_CI REUNION_RMW REUNION_R34_NE REUNION_R34_SE REUNION_R34_SW REUNION_R34_NW REUNION_R50_NE REUNION_R50_SE REUNION_R50_SW REUNION_R50_NW REUNION_R64_NE REUNION_R64_SE REUNION_R64_SW REUNION_R64_NW BOM_LAT BOM_LON BOM_TYPE BOM_WIND BOM_PRES BOM_TNUM BOM_CI BOM_RMW BOM_R34_NE BOM_R34_SE BOM_R34_SW BOM_R34_NW BOM_R50_NE BOM_R50_SE BOM_R50_SW BOM_R50_NW BOM_R64_NE BOM_R64_SE BOM_R64_SW BOM_R64_NW BOM_ROCI BOM_POCI BOM_EYE BOM_POS_METHOD BOM_PRES_METHOD NADI_LAT NADI_LON NADI_CAT NADI_WIND NADI_PRES WELLINGTON_LAT WELLINGTON_LON WELLINGTON_WIND WELLINGTON_PRES DS824_LAT DS824_LON DS824_STAGE DS824_WIND DS824_PRES TD9636_LAT TD9636_LON TD9636_STAGE TD9636_WIND TD9636_PRES TD9635_LAT TD9635_LON TD9635_WIND TD9635_PRES TD9635_ROCI NEUMANN_LAT NEUMANN_LON NEUMANN_CLASS NEUMANN_WIND NEUMANN_PRES MLC_LAT MLC_LON MLC_CLASS MLC_WIND MLC_PRES USA_GUST BOM_GUST BOM_GUST_PER REUNION_GUST REUNION_GUST_PER USA_SEAHGT USA_SEARAD_NE USA_SEARAD_SE USA_SEARAD_SW USA_SEARAD_NW STORM_SPEED STORM_DIR
1966204N10325 1966 44 NA NA ELLA 1966-07-22 12:00:00 TS 10.0000 -35.0000 25 hurdat_atl main 1540 1536 O_____________ hurdat_atl AL051966 10.0000 -35.0000 TD 25 -1 19 294
1966204N10325 1966 44 NA NA ELLA 1966-07-22 15:00:00 TS 10.3880 -35.8922 main 1551 1548 P_____________ AL051966 10.3880 -35.8922 TD 25 -1 19 294
1966204N10325 1966 44 NA NA ELLA 1966-07-22 18:00:00 TS 10.8000 -36.8000 25 hurdat_atl main 1570 1568 O_____________ hurdat_atl AL051966 10.8000 -36.8000 TD 25 -1 20 295
1966204N10325 1966 44 NA NA ELLA 1966-07-22 21:00:00 TS 11.2497 -37.7352 main 1596 1596 P_____________ AL051966 11.2497 -37.7352 TD 25 -1 21 296
1966204N10325 1966 44 NA NA ELLA 1966-07-23 00:00:00 TS 11.7000 -38.7000 25 hurdat_atl main 1616 1556 O_____________ hurdat_atl AL051966 11.7000 -38.7000 TD 25 -1 21 294
1966204N10325 1966 44 NA NA ELLA 1966-07-23 03:00:00 TS 12.0997 -39.6929 main 1547 1492 P_____________ AL051966 12.0997 -39.6929 TD 25 -1 21 292
1966204N10325 1966 44 NA NA ELLA 1966-07-23 06:00:00 TS 12.5000 -40.7000 25 hurdat_atl main 1484 1428 O_____________ hurdat_atl AL051966 12.5000 -40.7000 TD 25 -1 21 293
1966204N10325 1966 44 NA NA ELLA 1966-07-23 09:00:00 TS 12.9497 -41.7076 main 1428 1396 P_____________ AL051966 12.9497 -41.7076 TD 27 -1 22 295
1966204N10325 1966 44 NA NA ELLA 1966-07-23 12:00:00 TS 13.4000 -42.7000 30 hurdat_atl main 1389 1357 O_____________ hurdat_atl AL051966 13.4000 -42.7000 TD 30 -1 21 294
1966204N10325 1966 44 NA NA ELLA 1966-07-23 15:00:00 TS 13.8070 -43.6579 main 1352 1333 P_____________ AL051966 13.8070 -43.6579 TD 30 -1 20 293
1966204N10325 1966 44 NA NA ELLA 1966-07-23 18:00:00 TS 14.2000 -44.6000 30 hurdat_atl main 1330 1306 O_____________ hurdat_atl AL051966 14.2000 -44.6000 TD 30 -1 20 294
1966204N10325 1966 44 NA NA ELLA 1966-07-23 21:00:00 TS 14.6069 -45.5353 main 1308 1286 P_____________ AL051966 14.6069 -45.5353 TD 30 -1 20 294
1966204N10325 1966 44 NA NA ELLA 1966-07-24 00:00:00 TS 15.0000 -46.5000 30 hurdat_atl main 1284 1261 O_____________ hurdat_atl AL051966 15.0000 -46.5000 TD 30 -1 21 291
1966204N10325 1966 44 NA NA ELLA 1966-07-24 03:00:00 TS 15.3648 -47.5427 main 1270 1249 P_____________ AL051966 15.3648 -47.5427 TD 30 -1 21 289
1966204N10325 1966 44 NA NA ELLA 1966-07-24 06:00:00 TS 15.7000 -48.6000 30 hurdat_atl main 1251 1236 O_____________ hurdat_atl AL051966 15.7000 -48.6000 TD 30 -1 21 288
1966204N10325 1966 44 NA NA ELLA 1966-07-24 09:00:00 TS 16.0148 -49.6377 main 1237 1225 P_____________ AL051966 16.0148 -49.6377 TD 30 -1 20 287
1966204N10325 1966 44 NA NA ELLA 1966-07-24 12:00:00 TS 16.3000 -50.6000 30 hurdat_atl main 1229 1222 O_____________ hurdat_atl AL051966 16.3000 -50.6000 TD 30 -1 18 288
1966204N10325 1966 44 NA NA ELLA 1966-07-24 15:00:00 TS 16.5646 -51.4527 main 1220 1170 P_____________ AL051966 16.5646 -51.4527 TD 32 -1 16 288
1966204N10325 1966 44 NA NA ELLA 1966-07-24 18:00:00 TS 16.8000 -52.2000 35 1009 hurdat_atl main 1170 1123 O_____________ hurdat_atl AL051966 16.8000 -52.2000 TS 35 1009 0 14 288
1966204N10325 1966 44 NA NA ELLA 1966-07-24 21:00:00 TS 17.0147 -52.8877 main 1123 1088 P_____________ AL051966 17.0147 -52.8877 TS 37 0 13 288
1966204N10325 1966 44 NA NA ELLA 1966-07-25 00:00:00 TS 17.2000 -53.5000 40 hurdat_atl main 1088 1056 O_____________ hurdat_atl AL051966 17.2000 -53.5000 TS 40 0 12 287
1966204N10325 1966 44 NA NA ELLA 1966-07-25 03:00:00 TS 17.3572 -54.0577 main 1056 1027 P_____________ AL051966 17.3572 -54.0577 TS 42 0 11 286
1966204N10325 1966 44 NA NA ELLA 1966-07-25 06:00:00 TS 17.5000 -54.6000 45 hurdat_atl main 1027 993 O_____________ hurdat_atl AL051966 17.5000 -54.6000 TS 45 0 11 285
1966204N10325 1966 44 NA NA ELLA 1966-07-25 09:00:00 TS 17.6499 -55.1926 main 993 972 P_____________ AL051966 17.6499 -55.1926 TS 45 0 12 285
1966204N10325 1966 44 NA NA ELLA 1966-07-25 12:00:00 TS 17.8000 -55.8000 45 hurdat_atl main 972 946 O_____________ hurdat_atl AL051966 17.8000 -55.8000 TS 45 0 12 285
1966204N10325 1966 44 NA NA ELLA 1966-07-25 15:00:00 TS 17.9498 -56.4001 main 946 908 P_____________ AL051966 17.9498 -56.4001 TS 45 0 12 285
1966204N10325 1966 44 NA NA ELLA 1966-07-25 18:00:00 TS 18.1000 -57.0000 45 1010 hurdat_atl main 908 844 O_____________ hurdat_atl AL051966 18.1000 -57.0000 TS 45 1010 0 12 284
1966204N10325 1966 44 NA NA ELLA 1966-07-25 21:00:00 TS 18.2424 -57.6077 main 844 780 P_____________ AL051966 18.2424 -57.6077 TS 45 0 12 285
1966204N10325 1966 44 NA NA ELLA 1966-07-26 00:00:00 TS 18.4000 -58.2000 45 hurdat_atl main 780 727 O_____________ hurdat_atl AL051966 18.4000 -58.2000 TS 45 0 12 287
1966204N10325 1966 44 NA NA ELLA 1966-07-26 03:00:00 TS 18.5848 -58.7651 main 717 665 P_____________ AL051966 18.5848 -58.7651 TS 45 0 11 291
1966204N10325 1966 44 NA NA ELLA 1966-07-26 06:00:00 TS 18.8000 -59.3000 45 hurdat_atl main 665 614 O_____________ hurdat_atl AL051966 18.8000 -59.3000 TS 45 0 11 295
1966204N10325 1966 44 NA NA ELLA 1966-07-26 09:00:00 TS 19.0424 -59.8225 main 614 566 P_____________ AL051966 19.0424 -59.8225 TS 45 0 11 298
1966204N10325 1966 44 NA NA ELLA 1966-07-26 12:00:00 TS 19.3000 -60.3000 45 1008 hurdat_atl main 566 529 O_____________ hurdat_atl AL051966 19.3000 -60.3000 TS 45 1008 0 10 301
1966204N10325 1966 44 NA NA ELLA 1966-07-26 15:00:00 TS 19.5573 -60.7151 main 532 498 P_____________ AL051966 19.5573 -60.7151 TS 45 1008 0 9 304
1966204N10325 1966 44 NA NA ELLA 1966-07-26 18:00:00 TS 19.8000 -61.1000 45 1008 hurdat_atl main 498 466 O_____________ hurdat_atl AL051966 19.8000 -61.1000 TS 45 1008 0 9 300
1966204N10325 1966 44 NA NA ELLA 1966-07-26 21:00:00 TS 19.9925 -61.5077 main 466 437 P_____________ AL051966 19.9925 -61.5077 TS 45 0 9 298
1966204N10325 1966 44 NA NA ELLA 1966-07-27 00:00:00 TS 20.2000 -61.9000 45 hurdat_atl main 437 420 O_____________ hurdat_atl AL051966 20.2000 -61.9000 TS 45 0 9 305
1966204N10325 1966 44 NA NA ELLA 1966-07-27 03:00:00 TS 20.4848 -62.2501 main 418 413 P_____________ AL051966 20.4848 -62.2501 TS 45 0 9 312
1966204N10325 1966 44 NA NA ELLA 1966-07-27 06:00:00 TS 20.8000 -62.6000 45 hurdat_atl main 413 405 O_____________ hurdat_atl AL051966 20.8000 -62.6000 TS 45 0 9 312
1966204N10325 1966 44 NA NA ELLA 1966-07-27 09:00:00 TS 21.1075 -62.9926 main 406 401 P_____________ AL051966 21.1075 -62.9926 TS 45 0 10 309
1966204N10325 1966 44 NA NA ELLA 1966-07-27 12:00:00 TS 21.4000 -63.4000 45 1012 hurdat_atl main 406 400 O_____________ hurdat_atl AL051966 21.4000 -63.4000 TS 45 1012 0 9 306
1966204N10325 1966 44 NA NA ELLA 1966-07-27 15:00:00 TS 21.6498 -63.7928 main 404 404 P_____________ AL051966 21.6498 -63.7928 TS 45 0 9 304
1966204N10325 1966 44 NA NA ELLA 1966-07-27 18:00:00 TS 21.9000 -64.2000 45 hurdat_atl main 417 414 O_____________ hurdat_atl AL051966 21.9000 -64.2000 TS 45 0 9 305
1966204N10325 1966 44 NA NA ELLA 1966-07-27 21:00:00 TS 22.1923 -64.6277 main 437 435 P_____________ AL051966 22.1923 -64.6277 TS 45 0 10 306
1966204N10325 1966 44 NA NA ELLA 1966-07-28 00:00:00 TS 22.5000 -65.1000 45 hurdat_atl main 461 460 O_____________ hurdat_atl AL051966 22.5000 -65.1000 TS 45 0 11 303
1966204N10325 1966 44 NA NA ELLA 1966-07-28 03:00:00 TS 22.8000 -65.6351 main 492 492 P_____________ AL051966 22.8000 -65.6351 TS 45 0 12 301
1966204N10325 1966 44 NA NA ELLA 1966-07-28 06:00:00 TS 23.1000 -66.2000 45 hurdat_atl main 525 522 O_____________ hurdat_atl AL051966 23.1000 -66.2000 TS 45 0 12 300
1966204N10325 1966 44 NA NA ELLA 1966-07-28 09:00:00 TS 23.3998 -66.7502 main 526 526 P_____________ AL051966 23.3998 -66.7502 TS 42 0 12 301
1966204N10325 1966 44 NA NA ELLA 1966-07-28 12:00:00 TS 23.7000 -67.3000 40 hurdat_atl main 533 529 O_____________ hurdat_atl AL051966 23.7000 -67.3000 TS 40 0 12 301
1966204N10325 1966 44 NA NA ELLA 1966-07-28 15:00:00 TS 24.0004 -67.8495 main 541 537 P_____________ AL051966 24.0004 -67.8495 TS 35 0 12 301
1966204N10325 1966 44 NA NA ELLA 1966-07-28 18:00:00 TS 24.3000 -68.4000 30 hurdat_atl main 550 O_____________ hurdat_atl AL051966 24.3000 -68.4000 TD 30 -1 12 301

About IBTrACS Database

This database is a web-friendly format of International Best Track Archive for Climate Stewardship (IBTrACS), a global best track data archive curated by NOAA dating back to 1842.

Updated: 2021-11-26